sensor_id;sensor_type;location;lat;lon;timestamp;pressure;altitude;pressure_sealevel;temperature;humidity
22241;BME280;11289;52.524;13.694;2022-12-16T00:02:23;100519.88;;;-8.31;75.22
22241;BME280;11289;52.524;13.694;2022-12-16T00:04:48;100510.75;;;-8.36;75.19
22241;BME280;11289;52.524;13.694;2022-12-16T00:07:13;100500.38;;;-8.40;74.80
22241;BME280;11289;52.524;13.694;2022-12-16T00:09:39;100516.34;;;-8.31;74.58
22241;BME280;11289;52.524;13.694;2022-12-16T00:12:04;100515.75;;;-8.33;74.52
22241;BME280;11289;52.524;13.694;2022-12-16T00:14:30;100516.34;;;-8.38;74.23
22241;BME280;11289;52.524;13.694;2022-12-16T00:16:55;100515.34;;;-8.50;73.65
22241;BME280;11289;52.524;13.694;2022-12-16T00:19:20;100534.81;;;-8.42;73.68
22241;BME280;11289;52.524;13.694;2022-12-16T00:21:46;100522.81;;;-8.59;74.11
22241;BME280;11289;52.524;13.694;2022-12-16T00:24:11;100534.81;;;-8.48;74.01
22241;BME280;11289;52.524;13.694;2022-12-16T00:26:36;100535.22;;;-8.51;73.56
22241;BME280;11289;52.524;13.694;2022-12-16T00:29:02;100522.19;;;-8.61;73.82
22241;BME280;11289;52.524;13.694;2022-12-16T00:31:29;100542.72;;;-8.53;73.56
22241;BME280;11289;52.524;13.694;2022-12-16T00:33:56;100546.84;;;-8.58;73.45
22241;BME280;11289;52.524;13.694;2022-12-16T00:36:21;100544.97;;;-8.64;73.25
22241;BME280;11289;52.524;13.694;2022-12-16T00:38:46;100550.56;;;-8.65;73.41
22241;BME280;11289;52.524;13.694;2022-12-16T00:41:12;100544.13;;;-8.71;73.08
22241;BME280;11289;52.524;13.694;2022-12-16T00:43:37;100554.28;;;-8.73;72.88
22241;BME280;11289;52.524;13.694;2022-12-16T00:46:02;100555.09;;;-8.79;72.93
22241;BME280;11289;52.524;13.694;2022-12-16T00:48:28;100558.00;;;-8.81;73.23
22241;BME280;11289;52.524;13.694;2022-12-16T00:50:53;100556.13;;;-8.80;73.14
22241;BME280;11289;52.524;13.694;2022-12-16T00:53:20;100547.19;;;-8.87;73.32
22241;BME280;11289;52.524;13.694;2022-12-16T00:55:45;100565.88;;;-8.79;73.41
22241;BME280;11289;52.524;13.694;2022-12-16T00:58:11;100538.72;;;-8.91;73.04
22241;BME280;11289;52.524;13.694;2022-12-16T01:00:37;100553.84;;;-8.83;72.78
22241;BME280;11289;52.524;13.694;2022-12-16T01:03:03;100549.69;;;-8.86;73.26
22241;BME280;11289;52.524;13.694;2022-12-16T01:05:29;100558.81;;;-8.80;73.17
22241;BME280;11289;52.524;13.694;2022-12-16T01:07:54;100548.66;;;-8.91;72.79
22241;BME280;11289;52.524;13.694;2022-12-16T01:10:21;100550.50;;;-8.92;73.51
22241;BME280;11289;52.524;13.694;2022-12-16T01:12:47;100548.03;;;-8.94;73.40
22241;BME280;11289;52.524;13.694;2022-12-16T01:15:12;100541.59;;;-8.99;73.72
22241;BME280;11289;52.524;13.694;2022-12-16T01:17:39;100556.34;;;-8.88;74.09
22241;BME280;11289;52.524;13.694;2022-12-16T01:20:06;100551.97;;;-8.89;73.92
22241;BME280;11289;52.524;13.694;2022-12-16T01:22:32;100559.84;;;-8.88;73.37
22241;BME280;11289;52.524;13.694;2022-12-16T01:24:58;100552.16;;;-8.98;73.48
22241;BME280;11289;52.524;13.694;2022-12-16T01:27:24;100557.31;;;-8.96;73.43
22241;BME280;11289;52.524;13.694;2022-12-16T01:29:49;100571.22;;;-8.93;73.76
22241;BME280;11289;52.524;13.694;2022-12-16T01:32:14;100557.53;;;-8.98;73.66
22241;BME280;11289;52.524;13.694;2022-12-16T01:34:41;100567.31;;;-8.90;73.79
22241;BME280;11289;52.524;13.694;2022-12-16T01:37:10;100570.00;;;-8.90;74.13
22241;BME280;11289;52.524;13.694;2022-12-16T01:39:36;100555.06;;;-8.93;74.36
22241;BME280;11289;52.524;13.694;2022-12-16T01:42:01;100555.06;;;-8.86;74.23
22241;BME280;11289;52.524;13.694;2022-12-16T01:44:27;100519.44;;;-9.15;74.06
22241;BME280;11289;52.524;13.694;2022-12-16T01:46:55;100555.47;;;-8.96;74.44
22241;BME280;11289;52.524;13.694;2022-12-16T01:49:25;100557.34;;;-8.89;74.35
22241;BME280;11289;52.524;13.694;2022-12-16T01:51:54;100559.44;;;-8.91;74.25
22241;BME280;11289;52.524;13.694;2022-12-16T01:54:53;100555.28;;;-8.94;74.02
22241;BME280;11289;52.524;13.694;2022-12-16T01:57:26;100544.28;;;-8.99;73.94
22241;BME280;11289;52.524;13.694;2022-12-16T01:59:54;100548.22;;;-8.95;74.18
22241;BME280;11289;52.524;13.694;2022-12-16T02:02:21;100550.91;;;-8.95;74.38
22241;BME280;11289;52.524;13.694;2022-12-16T02:04:47;100541.38;;;-8.98;74.30
22241;BME280;11289;52.524;13.694;2022-12-16T02:07:31;100549.25;;;-8.96;74.17
22241;BME280;11289;52.524;13.694;2022-12-16T02:09:57;100550.50;;;-8.99;74.05
22241;BME280;11289;52.524;13.694;2022-12-16T02:15:22;100547.63;;;-8.97;74.12
22241;BME280;11289;52.524;13.694;2022-12-16T02:18:02;100542.03;;;-8.96;74.62
22241;BME280;11289;52.524;13.694;2022-12-16T02:20:54;100547.22;;;-8.94;74.52
22241;BME280;11289;52.524;13.694;2022-12-16T02:24:22;100536.84;;;-8.97;75.27
22241;BME280;11289;52.524;13.694;2022-12-16T02:30:03;100544.50;;;-8.87;75.05
22241;BME280;11289;52.524;13.694;2022-12-16T02:33:22;100536.03;;;-8.91;75.45
22241;BME280;11289;52.524;13.694;2022-12-16T02:35:34;100543.09;;;-8.90;75.09
22241;BME280;11289;52.524;13.694;2022-12-16T02:40:40;100544.09;;;-8.84;75.63
22241;BME280;11289;52.524;13.694;2022-12-16T02:45:42;100533.13;;;-8.89;74.98
22241;BME280;11289;52.524;13.694;2022-12-16T02:48:08;100526.72;;;-8.88;75.11
22241;BME280;11289;52.524;13.694;2022-12-16T02:50:44;100526.72;;;-8.88;74.78
22241;BME280;11289;52.524;13.694;2022-12-16T02:53:11;100536.84;;;-8.90;74.39
22241;BME280;11289;52.524;13.694;2022-12-16T03:04:04;100538.06;;;-9.06;73.79
22241;BME280;11289;52.524;13.694;2022-12-16T03:06:34;100536.38;;;-9.14;73.41
22241;BME280;11289;52.524;13.694;2022-12-16T03:09:02;100534.50;;;-9.14;73.30
22241;BME280;11289;52.524;13.694;2022-12-16T03:11:31;100514.63;;;-9.26;73.35
22241;BME280;11289;52.524;13.694;2022-12-16T03:13:57;100530.56;;;-9.24;73.37
22241;BME280;11289;52.524;13.694;2022-12-16T03:16:27;100542.59;;;-9.20;73.73
22241;BME280;11289;52.524;13.694;2022-12-16T03:19:01;100519.81;;;-9.24;73.86
22241;BME280;11289;52.524;13.694;2022-12-16T03:21:33;100538.84;;;-9.19;73.80
22241;BME280;11289;52.524;13.694;2022-12-16T03:24:05;100525.38;;;-9.26;73.66
22241;BME280;11289;52.524;13.694;2022-12-16T03:27:05;100525.59;;;-9.28;73.95
22241;BME280;11289;52.524;13.694;2022-12-16T03:32:01;100525.38;;;-9.26;73.95
22241;BME280;11289;52.524;13.694;2022-12-16T03:37:02;100510.88;;;-9.32;73.57
22241;BME280;11289;52.524;13.694;2022-12-16T03:39:30;100496.78;;;-9.34;74.10
22241;BME280;11289;52.524;13.694;2022-12-16T03:41:57;100498.06;;;-9.30;74.21
22241;BME280;11289;52.524;13.694;2022-12-16T03:44:23;100487.28;;;-9.36;74.35
22241;BME280;11289;52.524;13.694;2022-12-16T03:46:52;100499.97;;;-9.23;74.54
22241;BME280;11289;52.524;13.694;2022-12-16T03:49:17;100500.38;;;-9.20;74.89
22241;BME280;11289;52.524;13.694;2022-12-16T03:51:43;100493.72;;;-9.24;74.76
22241;BME280;11289;52.524;13.694;2022-12-16T03:54:08;100503.66;;;-9.18;75.18
22241;BME280;11289;52.524;13.694;2022-12-16T03:56:34;100514.03;;;-9.15;74.84
22241;BME280;11289;52.524;13.694;2022-12-16T03:58:59;100485.88;;;-9.25;74.95
22241;BME280;11289;52.524;13.694;2022-12-16T04:01:24;100504.91;;;-9.14;75.38
22241;BME280;11289;52.524;13.694;2022-12-16T04:03:50;100500.38;;;-9.13;75.65
22241;BME280;11289;52.524;13.694;2022-12-16T04:06:16;100506.81;;;-9.07;75.65
22241;BME280;11289;52.524;13.694;2022-12-16T04:08:44;100507.84;;;-9.08;75.26
22241;BME280;11289;52.524;13.694;2022-12-16T04:11:10;100495.00;;;-9.13;74.94
22241;BME280;11289;52.524;13.694;2022-12-16T04:13:55;100506.38;;;-9.11;75.48
22241;BME280;11289;52.524;13.694;2022-12-16T04:16:39;100514.03;;;-9.08;75.19
22241;BME280;11289;52.524;13.694;2022-12-16T04:19:25;100517.75;;;-9.09;75.02
22241;BME280;11289;52.524;13.694;2022-12-16T04:22:12;100519.63;;;-9.10;74.65
22241;BME280;11289;52.524;13.694;2022-12-16T04:25:02;100525.22;;;-9.11;74.86
22241;BME280;11289;52.524;13.694;2022-12-16T04:27:29;100520.25;;;-9.14;74.69
22241;BME280;11289;52.524;13.694;2022-12-16T04:29:55;100539.50;;;-9.11;74.69
22241;BME280;11289;52.524;13.694;2022-12-16T04:32:39;100541.31;;;-9.18;74.46
22241;BME280;11289;52.524;13.694;2022-12-16T04:35:23;100538.03;;;-9.20;74.72
22241;BME280;11289;52.524;13.694;2022-12-16T04:38:07;100527.22;;;-9.27;73.81
22241;BME280;11289;52.524;13.694;2022-12-16T04:40:51;100532.41;;;-9.25;74.13
22241;BME280;11289;52.524;13.694;2022-12-16T04:43:35;100535.94;;;-9.24;74.03
22241;BME280;11289;52.524;13.694;2022-12-16T04:46:19;100533.66;;;-9.21;74.34
22241;BME280;11289;52.524;13.694;2022-12-16T04:49:03;100542.78;;;-9.22;74.36
22241;BME280;11289;52.524;13.694;2022-12-16T04:51:47;100542.59;;;-9.20;74.08
22241;BME280;11289;52.524;13.694;2022-12-16T04:54:31;100536.97;;;-9.25;74.31
22241;BME280;11289;52.524;13.694;2022-12-16T04:57:15;100541.94;;;-9.22;74.16
22241;BME280;11289;52.524;13.694;2022-12-16T04:59:59;100555.19;;;-9.21;73.85
22241;BME280;11289;52.524;13.694;2022-12-16T05:02:42;100546.72;;;-9.24;73.99
22241;BME280;11289;52.524;13.694;2022-12-16T05:05:27;100546.50;;;-9.23;74.00
22241;BME280;11289;52.524;13.694;2022-12-16T05:08:11;100547.72;;;-9.25;74.53
22241;BME280;11289;52.524;13.694;2022-12-16T05:10:54;100544.00;;;-9.24;74.42
22241;BME280;11289;52.524;13.694;2022-12-16T05:13:38;100547.31;;;-9.22;74.72
22241;BME280;11289;52.524;13.694;2022-12-16T05:16:23;100547.13;;;-9.21;74.97
22241;BME280;11289;52.524;13.694;2022-12-16T05:19:07;100547.13;;;-9.21;74.48
22241;BME280;11289;52.524;13.694;2022-12-16T05:21:51;100557.06;;;-9.21;74.39
22241;BME280;11289;52.524;13.694;2022-12-16T05:24:34;100558.09;;;-9.22;74.43
22241;BME280;11289;52.524;13.694;2022-12-16T05:27:19;100544.00;;;-9.24;74.47
22241;BME280;11289;52.524;13.694;2022-12-16T05:30:03;100556.66;;;-9.18;74.77
22241;BME280;11289;52.524;13.694;2022-12-16T05:32:48;100549.59;;;-9.19;74.90
22241;BME280;11289;52.524;13.694;2022-12-16T05:35:31;100559.53;;;-9.20;74.86
22241;BME280;11289;52.524;13.694;2022-12-16T05:38:15;100564.91;;;-9.20;75.04
22241;BME280;11289;52.524;13.694;2022-12-16T05:40:59;100568.22;;;-9.24;75.19
22241;BME280;11289;52.524;13.694;2022-12-16T05:43:43;100557.88;;;-9.28;75.26
22241;BME280;11289;52.524;13.694;2022-12-16T05:46:27;100558.28;;;-9.24;74.66
22241;BME280;11289;52.524;13.694;2022-12-16T05:49:11;100566.78;;;-9.20;74.66
22241;BME280;11289;52.524;13.694;2022-12-16T05:51:55;100560.78;;;-9.22;74.95
22241;BME280;11289;52.524;13.694;2022-12-16T05:54:39;100566.78;;;-9.20;74.68
22241;BME280;11289;52.524;13.694;2022-12-16T05:57:22;100576.72;;;-9.21;75.18
22241;BME280;11289;52.524;13.694;2022-12-16T06:00:07;100585.63;;;-9.20;75.01
22241;BME280;11289;52.524;13.694;2022-12-16T06:02:51;100578.56;;;-9.21;75.29
22241;BME280;11289;52.524;13.694;2022-12-16T06:05:35;100585.63;;;-9.20;75.44
22241;BME280;11289;52.524;13.694;2022-12-16T06:08:19;100582.28;;;-9.22;75.28
22241;BME280;11289;52.524;13.694;2022-12-16T06:11:03;100592.44;;;-9.18;75.06
22241;BME280;11289;52.524;13.694;2022-12-16T06:13:47;100604.88;;;-9.17;74.97
22241;BME280;11289;52.524;13.694;2022-12-16T06:16:31;100598.44;;;-9.22;75.54
22241;BME280;11289;52.524;13.694;2022-12-16T06:19:15;100611.69;;;-9.21;76.01
22241;BME280;11289;52.524;13.694;2022-12-16T06:21:59;100608.16;;;-9.21;75.81
22241;BME280;11289;52.524;13.694;2022-12-16T06:24:43;100614.38;;;-9.21;75.71
22241;BME280;11289;52.524;13.694;2022-12-16T06:27:27;100623.09;;;-9.19;75.60
22241;BME280;11289;52.524;13.694;2022-12-16T06:30:11;100635.94;;;-9.14;75.94
22241;BME280;11289;52.524;13.694;2022-12-16T06:32:55;100640.91;;;-9.11;75.76
22241;BME280;11289;52.524;13.694;2022-12-16T06:35:38;100641.53;;;-9.09;75.20
22241;BME280;11289;52.524;13.694;2022-12-16T06:38:23;100652.28;;;-9.16;75.35
22241;BME280;11289;52.524;13.694;2022-12-16T06:41:07;100645.63;;;-9.20;74.97
22241;BME280;11289;52.524;13.694;2022-12-16T06:43:51;100660.56;;;-9.17;74.86
22241;BME280;11289;52.524;13.694;2022-12-16T06:46:35;100654.09;;;-9.23;75.27
22241;BME280;11289;52.524;13.694;2022-12-16T06:49:19;100676.69;;;-9.17;75.22
22241;BME280;11289;52.524;13.694;2022-12-16T06:52:02;100667.97;;;-9.19;75.11
22241;BME280;11289;52.524;13.694;2022-12-16T06:54:46;100680.41;;;-9.18;74.68
22241;BME280;11289;52.524;13.694;2022-12-16T06:57:30;100667.75;;;-9.24;74.74
22241;BME280;11289;52.524;13.694;2022-12-16T07:00:15;100673.13;;;-9.24;74.66
22241;BME280;11289;52.524;13.694;2022-12-16T07:02:58;100689.88;;;-9.22;74.79
22241;BME280;11289;52.524;13.694;2022-12-16T07:05:42;100682.66;;;-9.22;74.35
22241;BME280;11289;52.524;13.694;2022-12-16T07:08:26;100692.59;;;-9.22;74.83
22241;BME280;11289;52.524;13.694;2022-12-16T07:11:10;100695.47;;;-9.24;75.02
22241;BME280;11289;52.524;13.694;2022-12-16T07:13:54;100690.75;;;-9.22;74.84
22241;BME280;11289;52.524;13.694;2022-12-16T07:16:43;100707.31;;;-9.18;75.38
22241;BME280;11289;52.524;13.694;2022-12-16T07:19:26;100704.41;;;-9.17;75.40
22241;BME280;11289;52.524;13.694;2022-12-16T07:22:10;100705.47;;;-9.11;75.71
22241;BME280;11289;52.524;13.694;2022-12-16T07:24:54;100715.84;;;-9.08;75.78
22241;BME280;11289;52.524;13.694;2022-12-16T07:27:38;100712.75;;;-9.05;76.14
22241;BME280;11289;52.524;13.694;2022-12-16T07:30:22;100716.91;;;-9.02;76.59
22241;BME280;11289;52.524;13.694;2022-12-16T07:33:06;100713.22;;;-8.95;77.12
22241;BME280;11289;52.524;13.694;2022-12-16T07:35:50;100736.66;;;-8.88;77.11
22241;BME280;11289;52.524;13.694;2022-12-16T07:38:34;100743.94;;;-8.82;77.16
22241;BME280;11289;52.524;13.694;2022-12-16T07:41:18;100749.53;;;-8.77;77.14
22241;BME280;11289;52.524;13.694;2022-12-16T07:44:02;100754.75;;;-8.69;77.49
22241;BME280;11289;52.524;13.694;2022-12-16T07:46:46;100757.44;;;-8.69;77.36
22241;BME280;11289;52.524;13.694;2022-12-16T07:49:30;100761.81;;;-8.61;77.44
22241;BME280;11289;52.524;13.694;2022-12-16T07:52:14;100761.25;;;-8.56;77.63
22241;BME280;11289;52.524;13.694;2022-12-16T07:54:58;100773.69;;;-8.49;77.57
22241;BME280;11289;52.524;13.694;2022-12-16T07:57:48;100764.41;;;-8.46;77.59
22241;BME280;11289;52.524;13.694;2022-12-16T08:00:32;100764.38;;;-8.40;77.32
22241;BME280;11289;52.524;13.694;2022-12-16T08:03:16;100770.00;;;-8.34;77.47
22241;BME280;11289;52.524;13.694;2022-12-16T08:06:00;100772.47;;;-8.33;77.89
22241;BME280;11289;52.524;13.694;2022-12-16T08:08:44;100779.34;;;-8.24;78.03
22241;BME280;11289;52.524;13.694;2022-12-16T08:11:28;100781.84;;;-8.22;77.88
22241;BME280;11289;52.524;13.694;2022-12-16T08:14:12;100790.34;;;-8.18;77.54
22241;BME280;11289;52.524;13.694;2022-12-16T08:16:56;100782.69;;;-8.22;77.75
22241;BME280;11289;52.524;13.694;2022-12-16T08:19:40;100778.13;;;-8.21;77.90
22241;BME280;11289;52.524;13.694;2022-12-16T08:22:24;100808.00;;;-8.09;77.49
22241;BME280;11289;52.524;13.694;2022-12-16T08:25:08;100800.75;;;-8.09;77.40
22241;BME280;11289;52.524;13.694;2022-12-16T08:27:55;100798.69;;;-8.07;77.35
22241;BME280;11289;52.524;13.694;2022-12-16T08:30:39;100800.16;;;-8.04;77.35
22241;BME280;11289;52.524;13.694;2022-12-16T08:33:23;100791.00;;;-8.03;77.37
22241;BME280;11289;52.524;13.694;2022-12-16T08:36:07;100807.66;;;-7.93;77.28
22241;BME280;11289;52.524;13.694;2022-12-16T08:38:51;100807.03;;;-7.88;77.64
22241;BME280;11289;52.524;13.694;2022-12-16T08:41:35;100797.69;;;-7.79;78.13
22241;BME280;11289;52.524;13.694;2022-12-16T08:44:19;100793.34;;;-7.73;78.42
22241;BME280;11289;52.524;13.694;2022-12-16T08:47:03;100792.53;;;-7.67;78.81
22241;BME280;11289;52.524;13.694;2022-12-16T08:49:47;100791.72;;;-7.54;78.77
22241;BME280;11289;52.524;13.694;2022-12-16T08:52:31;100800.63;;;-7.47;78.55
22241;BME280;11289;52.524;13.694;2022-12-16T08:55:15;100802.72;;;-7.42;78.95
22241;BME280;11289;52.524;13.694;2022-12-16T08:57:59;100807.50;;;-7.38;79.07
22241;BME280;11289;52.524;13.694;2022-12-16T09:00:42;100807.69;;;-7.32;79.56
22241;BME280;11289;52.524;13.694;2022-12-16T09:03:26;100811.84;;;-7.30;80.18
22241;BME280;11289;52.524;13.694;2022-12-16T09:06:10;100824.94;;;-7.13;80.19
22241;BME280;11289;52.524;13.694;2022-12-16T09:08:54;100824.09;;;-7.07;80.36
22241;BME280;11289;52.524;13.694;2022-12-16T09:11:38;100818.91;;;-6.95;80.97
22241;BME280;11289;52.524;13.694;2022-12-16T09:14:22;100822.81;;;-6.78;81.34
22241;BME280;11289;52.524;13.694;2022-12-16T09:17:06;100816.75;;;-6.60;81.92
22241;BME280;11289;52.524;13.694;2022-12-16T09:19:50;100839.50;;;-6.29;81.90
22241;BME280;11289;52.524;13.694;2022-12-16T09:22:34;100829.28;;;-6.20;81.56
22241;BME280;11289;52.524;13.694;2022-12-16T09:25:18;100831.91;;;-6.00;82.24
22241;BME280;11289;52.524;13.694;2022-12-16T09:28:02;100829.72;;;-5.85;81.12
22241;BME280;11289;52.524;13.694;2022-12-16T09:30:46;100832.59;;;-5.80;80.32
22241;BME280;11289;52.524;13.694;2022-12-16T09:33:30;100834.84;;;-5.77;80.74
22241;BME280;11289;52.524;13.694;2022-12-16T09:36:14;100836.63;;;-5.57;81.52
22241;BME280;11289;52.524;13.694;2022-12-16T09:38:57;100829.06;;;-5.48;80.22
22241;BME280;11289;52.524;13.694;2022-12-16T09:41:44;100830.38;;;-5.26;80.92
22241;BME280;11289;52.524;13.694;2022-12-16T09:50:45;100823.84;;;-4.74;78.59
22241;BME280;11289;52.524;13.694;2022-12-16T09:53:33;100830.03;;;-4.67;79.42
22241;BME280;11289;52.524;13.694;2022-12-16T09:56:29;100820.91;;;-4.73;79.64
22241;BME280;11289;52.524;13.694;2022-12-16T09:59:18;100825.75;;;-4.56;80.05
22241;BME280;11289;52.524;13.694;2022-12-16T10:02:12;100828.22;;;-4.55;78.23
22241;BME280;11289;52.524;13.694;2022-12-16T10:04:56;100828.84;;;-4.52;79.03
22241;BME280;11289;52.524;13.694;2022-12-16T10:07:47;100828.00;;;-4.34;80.16
22241;BME280;11289;52.524;13.694;2022-12-16T10:13:47;100817.13;;;-3.97;80.25
22241;BME280;11289;52.524;13.694;2022-12-16T10:17:11;100824.78;;;-3.76;79.60
22241;BME280;11289;52.524;13.694;2022-12-16T10:20:05;100811.53;;;-3.84;78.00
22241;BME280;11289;52.524;13.694;2022-12-16T10:26:01;100812.34;;;-3.83;77.77
22241;BME280;11289;52.524;13.694;2022-12-16T10:29:05;100810.97;;;-3.74;78.86
22241;BME280;11289;52.524;13.694;2022-12-16T10:31:55;100807.81;;;-3.59;78.30
22241;BME280;11289;52.524;13.694;2022-12-16T10:34:39;100809.59;;;-3.53;77.83
22241;BME280;11289;52.524;13.694;2022-12-16T10:37:31;100814.84;;;-3.40;78.31
22241;BME280;11289;52.524;13.694;2022-12-16T10:40:18;100820.31;;;-3.28;77.81
22241;BME280;11289;52.524;13.694;2022-12-16T10:43:12;100812.47;;;-3.36;77.47
22241;BME280;11289;52.524;13.694;2022-12-16T10:45:58;100812.03;;;-3.33;77.64
22241;BME280;11289;52.524;13.694;2022-12-16T10:48:43;100821.03;;;-3.21;78.04
22241;BME280;11289;52.524;13.694;2022-12-16T10:51:27;100826.72;;;-3.10;77.39
22241;BME280;11289;52.524;13.694;2022-12-16T11:00:17;100832.72;;;-3.08;78.17
22241;BME280;11289;52.524;13.694;2022-12-16T11:03:19;100826.94;;;-3.12;77.86
22241;BME280;11289;52.524;13.694;2022-12-16T11:06:04;100832.16;;;-2.99;79.18
22241;BME280;11289;52.524;13.694;2022-12-16T11:08:49;100829.09;;;-2.90;80.04
22241;BME280;11289;52.524;13.694;2022-12-16T11:11:33;100832.03;;;-2.80;80.01
22241;BME280;11289;52.524;13.694;2022-12-16T11:14:21;100831.09;;;-2.74;79.83
22241;BME280;11289;52.524;13.694;2022-12-16T11:17:13;100829.56;;;-2.70;79.30
22241;BME280;11289;52.524;13.694;2022-12-16T11:23:22;100845.97;;;-2.65;79.23
22241;BME280;11289;52.524;13.694;2022-12-16T11:31:49;100844.44;;;-2.60;78.70
22241;BME280;11289;52.524;13.694;2022-12-16T11:34:34;100836.50;;;-2.62;79.80
22241;BME280;11289;52.524;13.694;2022-12-16T11:37:20;100857.91;;;-2.54;79.71
22241;BME280;11289;52.524;13.694;2022-12-16T11:40:11;100842.41;;;-2.53;79.66
22241;BME280;11289;52.524;13.694;2022-12-16T11:42:56;100854.00;;;-2.46;79.46
22241;BME280;11289;52.524;13.694;2022-12-16T11:45:41;100847.75;;;-2.47;79.18
22241;BME280;11289;52.524;13.694;2022-12-16T11:49:12;100855.19;;;-2.42;79.21
22241;BME280;11289;52.524;13.694;2022-12-16T11:52:02;100863.00;;;-2.34;79.70
22241;BME280;11289;52.524;13.694;2022-12-16T12:01:04;100859.66;;;-2.36;79.50
22241;BME280;11289;52.524;13.694;2022-12-16T12:03:49;100852.69;;;-2.32;79.20
22241;BME280;11289;52.524;13.694;2022-12-16T12:09:50;100846.03;;;-2.24;79.71
22241;BME280;11289;52.524;13.694;2022-12-16T12:12:42;100847.09;;;-2.13;79.25
22241;BME280;11289;52.524;13.694;2022-12-16T12:16:07;100852.28;;;-2.12;79.75
22241;BME280;11289;52.524;13.694;2022-12-16T12:21:50;100861.16;;;-2.04;79.31
22241;BME280;11289;52.524;13.694;2022-12-16T12:25:18;100869.31;;;-2.04;79.44
22241;BME280;11289;52.524;13.694;2022-12-16T12:31:04;100863.28;;;-2.06;80.34
22241;BME280;11289;52.524;13.694;2022-12-16T12:34:05;100877.56;;;-1.99;79.75
22241;BME280;11289;52.524;13.694;2022-12-16T12:37:15;100862.25;;;-2.17;79.45
22241;BME280;11289;52.524;13.694;2022-12-16T12:40:18;100886.00;;;-2.13;79.18
22241;BME280;11289;52.524;13.694;2022-12-16T12:46:24;100885.66;;;-2.04;79.95
22241;BME280;11289;52.524;13.694;2022-12-16T12:52:18;100888.69;;;-2.01;80.01
22241;BME280;11289;52.524;13.694;2022-12-16T12:58:16;100889.88;;;-1.97;80.41
22241;BME280;11289;52.524;13.694;2022-12-16T13:01:02;100898.03;;;-1.97;79.73
22241;BME280;11289;52.524;13.694;2022-12-16T13:04:01;100901.13;;;-1.93;79.96
22241;BME280;11289;52.524;13.694;2022-12-16T13:06:48;100902.44;;;-1.96;79.49
22241;BME280;11289;52.524;13.694;2022-12-16T13:09:34;100910.38;;;-2.06;78.77
22241;BME280;11289;52.524;13.694;2022-12-16T13:20:46;100922.19;;;-2.12;79.52
22241;BME280;11289;52.524;13.694;2022-12-16T13:23:37;100915.59;;;-2.16;79.32
22241;BME280;11289;52.524;13.694;2022-12-16T13:26:28;100918.78;;;-2.19;79.12
22241;BME280;11289;52.524;13.694;2022-12-16T13:40:56;100939.88;;;-2.26;79.76
22241;BME280;11289;52.524;13.694;2022-12-16T13:43:47;100942.59;;;-2.26;78.92
22241;BME280;11289;52.524;13.694;2022-12-16T13:46:44;100939.00;;;-2.27;79.17
22241;BME280;11289;52.524;13.694;2022-12-16T13:52:20;100950.50;;;-2.13;78.89
22241;BME280;11289;52.524;13.694;2022-12-16T13:55:18;100949.88;;;-2.15;78.24
22241;BME280;11289;52.524;13.694;2022-12-16T13:59:00;100956.28;;;-2.21;78.51
22241;BME280;11289;52.524;13.694;2022-12-16T14:01:25;100970.94;;;-2.22;77.79
22241;BME280;11289;52.524;13.694;2022-12-16T14:04:19;100973.78;;;-2.17;78.56
22241;BME280;11289;52.524;13.694;2022-12-16T14:07:06;100975.34;;;-2.21;76.97
22241;BME280;11289;52.524;13.694;2022-12-16T14:09:55;100977.94;;;-2.26;78.14
22241;BME280;11289;52.524;13.694;2022-12-16T14:13:00;100991.56;;;-2.15;78.61
22241;BME280;11289;52.524;13.694;2022-12-16T14:16:05;100991.06;;;-2.12;77.70
22241;BME280;11289;52.524;13.694;2022-12-16T14:19:00;100990.34;;;-2.07;77.78
22241;BME280;11289;52.524;13.694;2022-12-16T14:25:16;100983.84;;;-2.06;76.73
22241;BME280;11289;52.524;13.694;2022-12-16T14:28:07;100988.94;;;-2.10;76.74
22241;BME280;11289;52.524;13.694;2022-12-16T14:31:13;100998.19;;;-2.11;76.61
22241;BME280;11289;52.524;13.694;2022-12-16T14:34:00;100993.06;;;-2.07;76.88
22241;BME280;11289;52.524;13.694;2022-12-16T14:36:45;100984.06;;;-2.19;75.98
22241;BME280;11289;52.524;13.694;2022-12-16T14:39:30;100996.03;;;-2.20;76.58
22241;BME280;11289;52.524;13.694;2022-12-16T14:42:27;101012.59;;;-2.10;76.84
22241;BME280;11289;52.524;13.694;2022-12-16T14:48:33;101017.91;;;-2.39;76.43
22241;BME280;11289;52.524;13.694;2022-12-16T14:51:36;101026.63;;;-2.37;76.76
22241;BME280;11289;52.524;13.694;2022-12-16T14:54:37;101034.78;;;-2.37;76.27
22241;BME280;11289;52.524;13.694;2022-12-16T14:57:22;101036.34;;;-2.41;76.83
22241;BME280;11289;52.524;13.694;2022-12-16T15:02:58;101050.88;;;-2.35;77.50
22241;BME280;11289;52.524;13.694;2022-12-16T15:05:43;101040.94;;;-2.41;76.73
22241;BME280;11289;52.524;13.694;2022-12-16T15:08:31;101038.75;;;-2.63;76.51
22241;BME280;11289;52.524;13.694;2022-12-16T15:11:18;101050.03;;;-2.59;77.22
22241;BME280;11289;52.524;13.694;2022-12-16T15:14:04;101054.19;;;-2.57;77.85
22241;BME280;11289;52.524;13.694;2022-12-16T15:16:50;101055.47;;;-2.59;77.33
22241;BME280;11289;52.524;13.694;2022-12-16T15:19:47;101037.06;;;-2.76;77.69
22241;BME280;11289;52.524;13.694;2022-12-16T15:22:35;101058.16;;;-2.71;77.54
22241;BME280;11289;52.524;13.694;2022-12-16T15:25:24;101063.81;;;-2.73;78.11
22241;BME280;11289;52.524;13.694;2022-12-16T15:28:26;101068.53;;;-2.80;78.00
22241;BME280;11289;52.524;13.694;2022-12-16T15:31:37;101047.28;;;-3.02;78.31
22241;BME280;11289;52.524;13.694;2022-12-16T15:34:48;101079.25;;;-2.85;78.55
22241;BME280;11289;52.524;13.694;2022-12-16T15:37:38;101078.97;;;-2.95;78.61
22241;BME280;11289;52.524;13.694;2022-12-16T15:40:27;101079.13;;;-2.90;78.62
22241;BME280;11289;52.524;13.694;2022-12-16T15:43:30;101084.09;;;-2.87;78.91
22241;BME280;11289;52.524;13.694;2022-12-16T15:49:04;101077.13;;;-2.83;78.84
22241;BME280;11289;52.524;13.694;2022-12-16T15:51:49;101077.13;;;-2.83;78.79